sensor_id;sensor_type;location;lat;lon;timestamp;P1;durP1;ratioP1;P2;durP2;ratioP2
14945;SDS011;7567;50.916;6.900;2022-09-12T08:33:49;15.63;;;14.13;;
14945;SDS011;7567;50.916;6.900;2022-09-12T08:36:16;14.60;;;13.10;;
14945;SDS011;7567;50.916;6.900;2022-09-12T08:38:46;13.75;;;12.45;;
14945;SDS011;7567;50.916;6.900;2022-09-12T08:43:46;14.43;;;12.95;;
14945;SDS011;7567;50.916;6.900;2022-09-12T08:49:03;13.77;;;12.38;;
14945;SDS011;7567;50.916;6.900;2022-09-12T08:51:33;14.60;;;13.13;;
14945;SDS011;7567;50.916;6.900;2022-09-12T08:54:01;14.38;;;12.93;;
14945;SDS011;7567;50.916;6.900;2022-09-12T08:56:30;14.27;;;12.18;;
14945;SDS011;7567;50.916;6.900;2022-09-12T08:59:00;13.27;;;11.95;;
14945;SDS011;7567;50.916;6.900;2022-09-12T09:01:29;13.63;;;12.25;;
14945;SDS011;7567;50.916;6.900;2022-09-12T09:17:41;13.35;;;11.98;;
14945;SDS011;7567;50.916;6.900;2022-09-12T09:22:45;13.50;;;12.15;;
14945;SDS011;7567;50.916;6.900;2022-09-12T09:25:19;12.07;;;10.85;;
14945;SDS011;7567;50.916;6.900;2022-09-12T09:28:10;13.77;;;11.05;;
14945;SDS011;7567;50.916;6.900;2022-09-12T09:30:46;11.85;;;10.43;;
14945;SDS011;7567;50.916;6.900;2022-09-12T09:33:27;12.93;;;11.40;;
14945;SDS011;7567;50.916;6.900;2022-09-12T09:36:05;12.25;;;10.95;;
14945;SDS011;7567;50.916;6.900;2022-09-12T09:41:21;10.90;;;9.80;;
14945;SDS011;7567;50.916;6.900;2022-09-12T09:44:09;12.40;;;11.30;;
14945;SDS011;7567;50.916;6.900;2022-09-12T09:46:35;11.95;;;10.27;;
14945;SDS011;7567;50.916;6.900;2022-09-12T09:49:01;11.70;;;10.60;;
14945;SDS011;7567;50.916;6.900;2022-09-12T09:51:34;10.35;;;9.25;;
14945;SDS011;7567;50.916;6.900;2022-09-12T09:54:03;8.73;;;7.93;;
14945;SDS011;7567;50.916;6.900;2022-09-12T09:56:47;10.32;;;9.07;;
14945;SDS011;7567;50.916;6.900;2022-09-12T09:59:15;9.80;;;7.82;;
14945;SDS011;7567;50.916;6.900;2022-09-12T10:01:55;7.85;;;7.00;;
14945;SDS011;7567;50.916;6.900;2022-09-12T10:04:31;7.75;;;7.00;;
14945;SDS011;7567;50.916;6.900;2022-09-12T10:07:00;7.55;;;6.80;;
14945;SDS011;7567;50.916;6.900;2022-09-12T10:09:28;9.23;;;6.68;;
14945;SDS011;7567;50.916;6.900;2022-09-12T10:11:59;6.97;;;6.38;;
14945;SDS011;7567;50.916;6.900;2022-09-12T10:15:03;6.53;;;5.93;;
14945;SDS011;7567;50.916;6.900;2022-09-12T10:17:46;6.57;;;5.97;;
14945;SDS011;7567;50.916;6.900;2022-09-12T10:20:34;7.88;;;7.18;;
14945;SDS011;7567;50.916;6.900;2022-09-12T10:26:10;7.68;;;6.35;;
14945;SDS011;7567;50.916;6.900;2022-09-12T10:31:08;5.93;;;5.38;;
14945;SDS011;7567;50.916;6.900;2022-09-12T10:33:40;6.65;;;5.13;;
14945;SDS011;7567;50.916;6.900;2022-09-12T10:36:17;7.57;;;6.20;;
14945;SDS011;7567;50.916;6.900;2022-09-12T10:38:48;4.82;;;4.43;;
14945;SDS011;7567;50.916;6.900;2022-09-12T10:41:19;5.65;;;5.07;;
14945;SDS011;7567;50.916;6.900;2022-09-12T10:43:46;4.78;;;4.38;;
14945;SDS011;7567;50.916;6.900;2022-09-12T10:48:48;5.53;;;4.15;;
14945;SDS011;7567;50.916;6.900;2022-09-12T10:53:51;4.97;;;4.57;;
14945;SDS011;7567;50.916;6.900;2022-09-12T10:56:29;4.80;;;3.63;;
14945;SDS011;7567;50.916;6.900;2022-09-12T11:04:45;3.88;;;3.50;;
14945;SDS011;7567;50.916;6.900;2022-09-12T11:10:00;3.75;;;3.03;;
14945;SDS011;7567;50.916;6.900;2022-09-12T11:13:03;4.55;;;3.28;;
14945;SDS011;7567;50.916;6.900;2022-09-12T11:15:59;7.22;;;3.50;;
14945;SDS011;7567;50.916;6.900;2022-09-12T11:26:49;3.03;;;2.72;;
14945;SDS011;7567;50.916;6.900;2022-09-12T11:29:40;5.32;;;3.08;;
14945;SDS011;7567;50.916;6.900;2022-09-12T11:35:24;4.85;;;2.92;;
14945;SDS011;7567;50.916;6.900;2022-09-12T11:42:50;3.35;;;2.67;;
14945;SDS011;7567;50.916;6.900;2022-09-12T11:45:38;3.33;;;3.03;;
14945;SDS011;7567;50.916;6.900;2022-09-12T11:48:10;3.33;;;3.05;;
14945;SDS011;7567;50.916;6.900;2022-09-12T11:51:01;3.75;;;3.33;;
14945;SDS011;7567;50.916;6.900;2022-09-12T11:53:33;3.05;;;2.80;;
14945;SDS011;7567;50.916;6.900;2022-09-12T11:56:21;3.38;;;3.08;;
14945;SDS011;7567;50.916;6.900;2022-09-12T11:58:56;4.40;;;2.83;;
14945;SDS011;7567;50.916;6.900;2022-09-12T12:01:30;3.47;;;2.80;;
14945;SDS011;7567;50.916;6.900;2022-09-12T12:04:00;4.55;;;2.60;;
14945;SDS011;7567;50.916;6.900;2022-09-12T12:06:39;3.00;;;2.70;;
14945;SDS011;7567;50.916;6.900;2022-09-12T12:09:16;3.28;;;2.97;;
14945;SDS011;7567;50.916;6.900;2022-09-12T12:11:43;3.33;;;2.88;;
14945;SDS011;7567;50.916;6.900;2022-09-12T12:14:19;3.05;;;2.85;;
14945;SDS011;7567;50.916;6.900;2022-09-12T12:17:20;2.92;;;2.72;;
14945;SDS011;7567;50.916;6.900;2022-09-12T12:20:01;3.00;;;2.80;;
14945;SDS011;7567;50.916;6.900;2022-09-12T12:22:30;4.03;;;3.50;;
14945;SDS011;7567;50.916;6.900;2022-09-12T12:38:36;3.83;;;2.75;;
14945;SDS011;7567;50.916;6.900;2022-09-12T12:43:41;3.92;;;3.47;;
14945;SDS011;7567;50.916;6.900;2022-09-12T12:46:15;4.35;;;3.10;;
14945;SDS011;7567;50.916;6.900;2022-09-12T12:48:50;3.85;;;3.20;;
14945;SDS011;7567;50.916;6.900;2022-09-12T12:51:30;4.57;;;3.33;;
14945;SDS011;7567;50.916;6.900;2022-09-12T12:59:44;5.90;;;2.88;;
14945;SDS011;7567;50.916;6.900;2022-09-12T13:02:40;5.43;;;3.05;;
14945;SDS011;7567;50.916;6.900;2022-09-12T13:05:22;3.60;;;2.47;;
14945;SDS011;7567;50.916;6.900;2022-09-12T13:10:48;3.42;;;2.83;;
14945;SDS011;7567;50.916;6.900;2022-09-12T13:13:26;2.70;;;2.50;;
14945;SDS011;7567;50.916;6.900;2022-09-12T13:15:56;2.78;;;2.58;;
14945;SDS011;7567;50.916;6.900;2022-09-12T13:18:24;3.38;;;2.83;;
14945;SDS011;7567;50.916;6.900;2022-09-12T13:21:16;4.32;;;2.40;;
14945;SDS011;7567;50.916;6.900;2022-09-12T13:23:45;2.90;;;2.70;;
14945;SDS011;7567;50.916;6.900;2022-09-12T13:26:27;4.00;;;2.53;;
14945;SDS011;7567;50.916;6.900;2022-09-12T13:29:15;3.00;;;2.70;;
14945;SDS011;7567;50.916;6.900;2022-09-12T13:31:44;4.00;;;2.55;;
14945;SDS011;7567;50.916;6.900;2022-09-12T13:34:16;3.70;;;2.70;;
14945;SDS011;7567;50.916;6.900;2022-09-12T13:36:54;4.60;;;2.83;;
14945;SDS011;7567;50.916;6.900;2022-09-12T13:42:47;3.50;;;2.42;;
14945;SDS011;7567;50.916;6.900;2022-09-12T13:45:21;3.42;;;3.13;;
14945;SDS011;7567;50.916;6.900;2022-09-12T13:48:01;2.70;;;2.50;;
14945;SDS011;7567;50.916;6.900;2022-09-12T13:50:29;2.60;;;2.28;;
14945;SDS011;7567;50.916;6.900;2022-09-12T13:53:02;2.70;;;2.50;;
14945;SDS011;7567;50.916;6.900;2022-09-12T13:55:35;2.88;;;2.67;;
14945;SDS011;7567;50.916;6.900;2022-09-12T13:58:50;2.92;;;2.72;;
14945;SDS011;7567;50.916;6.900;2022-09-12T14:01:12;3.25;;;2.65;;
14945;SDS011;7567;50.916;6.900;2022-09-12T14:06:50;2.67;;;2.47;;
14945;SDS011;7567;50.916;6.900;2022-09-12T14:09:21;3.08;;;2.45;;
14945;SDS011;7567;50.916;6.900;2022-09-12T14:11:50;2.55;;;2.28;;
14945;SDS011;7567;50.916;6.900;2022-09-12T14:14:18;3.17;;;2.58;;
14945;SDS011;7567;50.916;6.900;2022-09-12T14:16:53;2.88;;;2.63;;
14945;SDS011;7567;50.916;6.900;2022-09-12T14:19:21;4.90;;;2.80;;
14945;SDS011;7567;50.916;6.900;2022-09-12T14:21:53;3.17;;;2.92;;
14945;SDS011;7567;50.916;6.900;2022-09-12T14:24:20;3.28;;;2.97;;
14945;SDS011;7567;50.916;6.900;2022-09-12T14:26:50;4.22;;;2.97;;
14945;SDS011;7567;50.916;6.900;2022-09-12T14:29:18;2.80;;;2.60;;
14945;SDS011;7567;50.916;6.900;2022-09-12T14:31:45;2.85;;;2.65;;
14945;SDS011;7567;50.916;6.900;2022-09-12T14:34:15;3.10;;;2.80;;
14945;SDS011;7567;50.916;6.900;2022-09-12T14:36:52;5.85;;;2.80;;
14945;SDS011;7567;50.916;6.900;2022-09-12T14:39:39;4.10;;;2.63;;
14945;SDS011;7567;50.916;6.900;2022-09-12T14:42:19;3.45;;;3.00;;
14945;SDS011;7567;50.916;6.900;2022-09-12T14:44:52;3.17;;;2.92;;
14945;SDS011;7567;50.916;6.900;2022-09-12T14:47:25;4.28;;;3.05;;
14945;SDS011;7567;50.916;6.900;2022-09-12T14:49:52;3.30;;;2.70;;
14945;SDS011;7567;50.916;6.900;2022-09-12T15:02:41;2.75;;;2.55;;
14945;SDS011;7567;50.916;6.900;2022-09-12T15:07:40;4.20;;;2.95;;
14945;SDS011;7567;50.916;6.900;2022-09-12T15:12:50;3.53;;;2.88;;
14945;SDS011;7567;50.916;6.900;2022-09-12T15:15:38;5.32;;;3.05;;
14945;SDS011;7567;50.916;6.900;2022-09-12T15:18:06;3.00;;;2.75;;
14945;SDS011;7567;50.916;6.900;2022-09-12T15:20:33;3.78;;;3.28;;
14945;SDS011;7567;50.916;6.900;2022-09-12T15:23:02;4.65;;;2.50;;
14945;SDS011;7567;50.916;6.900;2022-09-12T15:25:30;4.07;;;2.80;;
14945;SDS011;7567;50.916;6.900;2022-09-12T15:27:56;4.45;;;3.10;;
14945;SDS011;7567;50.916;6.900;2022-09-12T15:30:22;3.50;;;3.15;;
14945;SDS011;7567;50.916;6.900;2022-09-12T15:32:48;4.15;;;2.67;;
14945;SDS011;7567;50.916;6.900;2022-09-12T15:35:19;3.13;;;2.85;;
14945;SDS011;7567;50.916;6.900;2022-09-12T15:37:47;4.00;;;2.80;;
14945;SDS011;7567;50.916;6.900;2022-09-12T15:40:14;4.07;;;2.95;;
14945;SDS011;7567;50.916;6.900;2022-09-12T15:42:40;5.10;;;2.90;;
14945;SDS011;7567;50.916;6.900;2022-09-12T15:45:21;4.00;;;2.83;;
14945;SDS011;7567;50.916;6.900;2022-09-12T15:47:50;3.55;;;2.67;;
14945;SDS011;7567;50.916;6.900;2022-09-12T15:50:16;2.70;;;2.50;;
14945;SDS011;7567;50.916;6.900;2022-09-12T15:52:42;2.90;;;2.60;;
14945;SDS011;7567;50.916;6.900;2022-09-12T15:55:14;5.68;;;2.42;;
14945;SDS011;7567;50.916;6.900;2022-09-12T15:57:52;2.53;;;2.33;;
14945;SDS011;7567;50.916;6.900;2022-09-12T16:00:18;2.90;;;2.60;;
14945;SDS011;7567;50.916;6.900;2022-09-12T16:02:48;6.28;;;2.85;;
14945;SDS011;7567;50.916;6.900;2022-09-12T16:05:16;2.90;;;2.45;;
14945;SDS011;7567;50.916;6.900;2022-09-12T16:07:47;6.25;;;2.60;;
14945;SDS011;7567;50.916;6.900;2022-09-12T16:10:17;2.53;;;2.33;;
14945;SDS011;7567;50.916;6.900;2022-09-12T16:12:45;2.58;;;2.38;;
14945;SDS011;7567;50.916;6.900;2022-09-12T16:15:12;5.85;;;2.53;;
14945;SDS011;7567;50.916;6.900;2022-09-12T16:17:43;3.58;;;2.50;;
14945;SDS011;7567;50.916;6.900;2022-09-12T16:20:09;3.78;;;2.42;;
14945;SDS011;7567;50.916;6.900;2022-09-12T16:22:35;5.70;;;2.47;;
14945;SDS011;7567;50.916;6.900;2022-09-12T16:25:02;2.88;;;2.38;;
14945;SDS011;7567;50.916;6.900;2022-09-12T16:27:28;2.47;;;2.22;;
14945;SDS011;7567;50.916;6.900;2022-09-12T16:29:54;3.20;;;2.90;;
14945;SDS011;7567;50.916;6.900;2022-09-12T16:32:20;3.38;;;3.08;;
14945;SDS011;7567;50.916;6.900;2022-09-12T16:34:46;2.90;;;2.63;;
14945;SDS011;7567;50.916;6.900;2022-09-12T16:37:12;2.80;;;2.55;;
14945;SDS011;7567;50.916;6.900;2022-09-12T16:39:38;3.28;;;2.97;;
14945;SDS011;7567;50.916;6.900;2022-09-12T16:42:03;2.72;;;2.53;;
14945;SDS011;7567;50.916;6.900;2022-09-12T16:44:29;3.33;;;2.30;;
14945;SDS011;7567;50.916;6.900;2022-09-12T16:46:55;3.03;;;2.55;;
14945;SDS011;7567;50.916;6.900;2022-09-12T16:49:21;3.60;;;2.20;;
14945;SDS011;7567;50.916;6.900;2022-09-12T16:51:47;2.70;;;2.10;;
14945;SDS011;7567;50.916;6.900;2022-09-12T16:54:13;6.03;;;2.17;;
14945;SDS011;7567;50.916;6.900;2022-09-12T16:56:40;2.22;;;1.90;;
14945;SDS011;7567;50.916;6.900;2022-09-12T16:59:06;2.97;;;2.25;;
14945;SDS011;7567;50.916;6.900;2022-09-12T17:01:36;6.45;;;2.58;;
14945;SDS011;7567;50.916;6.900;2022-09-12T17:04:02;3.55;;;2.20;;
14945;SDS011;7567;50.916;6.900;2022-09-12T17:06:28;3.60;;;2.00;;
14945;SDS011;7567;50.916;6.900;2022-09-12T17:08:57;3.20;;;2.25;;
14945;SDS011;7567;50.916;6.900;2022-09-12T17:11:29;5.07;;;2.08;;
14945;SDS011;7567;50.916;6.900;2022-09-12T17:13:58;2.35;;;1.95;;
14945;SDS011;7567;50.916;6.900;2022-09-12T17:16:25;2.20;;;2.00;;
14945;SDS011;7567;50.916;6.900;2022-09-12T17:18:52;3.72;;;1.90;;
14945;SDS011;7567;50.916;6.900;2022-09-12T17:21:19;3.05;;;1.80;;
14945;SDS011;7567;50.916;6.900;2022-09-12T17:23:45;2.63;;;1.90;;
14945;SDS011;7567;50.916;6.900;2022-09-12T17:26:11;2.55;;;1.80;;
14945;SDS011;7567;50.916;6.900;2022-09-12T17:28:38;1.83;;;1.73;;
14945;SDS011;7567;50.916;6.900;2022-09-12T17:31:05;2.05;;;1.88;;
14945;SDS011;7567;50.916;6.900;2022-09-12T17:33:32;2.20;;;2.00;;
14945;SDS011;7567;50.916;6.900;2022-09-12T17:36:02;2.42;;;2.20;;
14945;SDS011;7567;50.916;6.900;2022-09-12T17:38:39;2.90;;;1.83;;
14945;SDS011;7567;50.916;6.900;2022-09-12T17:41:11;2.40;;;2.20;;
14945;SDS011;7567;50.916;6.900;2022-09-12T17:43:43;10.90;;;9.18;;
14945;SDS011;7567;50.916;6.900;2022-09-12T17:46:10;6.80;;;5.95;;
14945;SDS011;7567;50.916;6.900;2022-09-12T17:48:36;8.50;;;7.63;;
14945;SDS011;7567;50.916;6.900;2022-09-12T17:51:09;8.18;;;7.07;;
14945;SDS011;7567;50.916;6.900;2022-09-12T17:53:37;5.90;;;5.07;;
14945;SDS011;7567;50.916;6.900;2022-09-12T17:56:04;5.10;;;3.05;;
14945;SDS011;7567;50.916;6.900;2022-09-12T17:58:31;4.90;;;3.08;;
14945;SDS011;7567;50.916;6.900;2022-09-12T18:01:05;3.70;;;3.30;;
14945;SDS011;7567;50.916;6.900;2022-09-12T18:03:53;5.13;;;4.20;;
14945;SDS011;7567;50.916;6.900;2022-09-12T18:06:20;4.38;;;3.20;;
14945;SDS011;7567;50.916;6.900;2022-09-12T18:08:47;5.57;;;2.60;;
14945;SDS011;7567;50.916;6.900;2022-09-12T18:11:13;5.15;;;4.72;;
14945;SDS011;7567;50.916;6.900;2022-09-12T18:13:39;14.60;;;13.10;;
14945;SDS011;7567;50.916;6.900;2022-09-12T18:16:05;12.85;;;11.48;;
14945;SDS011;7567;50.916;6.900;2022-09-12T18:18:34;12.35;;;9.10;;
14945;SDS011;7567;50.916;6.900;2022-09-12T18:21:03;6.28;;;5.68;;
14945;SDS011;7567;50.916;6.900;2022-09-12T18:23:30;5.63;;;4.60;;
14945;SDS011;7567;50.916;6.900;2022-09-12T18:25:57;5.53;;;4.55;;
14945;SDS011;7567;50.916;6.900;2022-09-12T18:28:24;3.85;;;3.35;;
14945;SDS011;7567;50.916;6.900;2022-09-12T18:30:51;3.67;;;2.88;;
14945;SDS011;7567;50.916;6.900;2022-09-12T18:33:17;7.10;;;3.10;;
14945;SDS011;7567;50.916;6.900;2022-09-12T18:35:43;2.80;;;2.60;;
14945;SDS011;7567;50.916;6.900;2022-09-12T18:38:09;4.53;;;2.55;;
14945;SDS011;7567;50.916;6.900;2022-09-12T18:40:36;2.50;;;2.30;;
14945;SDS011;7567;50.916;6.900;2022-09-12T18:43:02;3.05;;;2.65;;
14945;SDS011;7567;50.916;6.900;2022-09-12T18:45:27;2.22;;;2.03;;
14945;SDS011;7567;50.916;6.900;2022-09-12T18:47:54;2.38;;;2.17;;
14945;SDS011;7567;50.916;6.900;2022-09-12T18:50:20;2.60;;;2.25;;
14945;SDS011;7567;50.916;6.900;2022-09-12T18:52:47;2.50;;;2.30;;
14945;SDS011;7567;50.916;6.900;2022-09-12T18:55:15;2.60;;;2.33;;
14945;SDS011;7567;50.916;6.900;2022-09-12T18:57:41;2.78;;;2.40;;
14945;SDS011;7567;50.916;6.900;2022-09-12T19:00:07;2.17;;;1.95;;
14945;SDS011;7567;50.916;6.900;2022-09-12T19:02:34;7.18;;;2.55;;
14945;SDS011;7567;50.916;6.900;2022-09-12T19:04:59;2.33;;;2.22;;
14945;SDS011;7567;50.916;6.900;2022-09-12T19:07:26;3.92;;;2.28;;
14945;SDS011;7567;50.916;6.900;2022-09-12T19:09:52;2.60;;;2.40;;
14945;SDS011;7567;50.916;6.900;2022-09-12T19:12:18;3.75;;;2.20;;
14945;SDS011;7567;50.916;6.900;2022-09-12T19:14:43;3.05;;;2.25;;
14945;SDS011;7567;50.916;6.900;2022-09-12T19:17:09;3.88;;;2.40;;
14945;SDS011;7567;50.916;6.900;2022-09-12T19:19:35;2.50;;;2.30;;
14945;SDS011;7567;50.916;6.900;2022-09-12T19:22:01;4.15;;;2.95;;
14945;SDS011;7567;50.916;6.900;2022-09-12T19:24:28;3.28;;;2.45;;
14945;SDS011;7567;50.916;6.900;2022-09-12T19:26:55;2.53;;;2.30;;
14945;SDS011;7567;50.916;6.900;2022-09-12T19:29:20;2.45;;;2.25;;
14945;SDS011;7567;50.916;6.900;2022-09-12T19:31:47;4.45;;;2.50;;
14945;SDS011;7567;50.916;6.900;2022-09-12T19:34:13;3.63;;;2.38;;
14945;SDS011;7567;50.916;6.900;2022-09-12T19:36:40;4.22;;;2.85;;
14945;SDS011;7567;50.916;6.900;2022-09-12T19:39:06;4.00;;;2.78;;
14945;SDS011;7567;50.916;6.900;2022-09-12T19:41:32;2.78;;;2.58;;
14945;SDS011;7567;50.916;6.900;2022-09-12T19:43:59;2.72;;;2.40;;
14945;SDS011;7567;50.916;6.900;2022-09-12T19:46:25;5.13;;;2.70;;
14945;SDS011;7567;50.916;6.900;2022-09-12T19:48:52;3.50;;;2.65;;
14945;SDS011;7567;50.916;6.900;2022-09-12T19:51:18;4.93;;;2.90;;
14945;SDS011;7567;50.916;6.900;2022-09-12T19:53:46;3.88;;;2.75;;
14945;SDS011;7567;50.916;6.900;2022-09-12T19:56:14;2.95;;;2.75;;
14945;SDS011;7567;50.916;6.900;2022-09-12T19:58:44;8.13;;;2.72;;
14945;SDS011;7567;50.916;6.900;2022-09-12T20:03:45;4.80;;;2.97;;
14945;SDS011;7567;50.916;6.900;2022-09-12T20:06:15;3.40;;;3.10;;
14945;SDS011;7567;50.916;6.900;2022-09-12T20:08:42;3.15;;;2.95;;
14945;SDS011;7567;50.916;6.900;2022-09-12T20:11:09;2.75;;;2.55;;
14945;SDS011;7567;50.916;6.900;2022-09-12T20:13:37;4.20;;;3.50;;
14945;SDS011;7567;50.916;6.900;2022-09-12T20:16:06;3.53;;;3.20;;
14945;SDS011;7567;50.916;6.900;2022-09-12T20:18:39;3.35;;;3.05;;
14945;SDS011;7567;50.916;6.900;2022-09-12T20:21:10;3.28;;;2.95;;
14945;SDS011;7567;50.916;6.900;2022-09-12T20:23:40;4.45;;;3.60;;
14945;SDS011;7567;50.916;6.900;2022-09-12T20:26:07;3.17;;;2.90;;
14945;SDS011;7567;50.916;6.900;2022-09-12T20:28:37;4.57;;;2.92;;
14945;SDS011;7567;50.916;6.900;2022-09-12T20:31:10;3.90;;;3.30;;
14945;SDS011;7567;50.916;6.900;2022-09-12T20:33:38;2.67;;;2.50;;
14945;SDS011;7567;50.916;6.900;2022-09-12T20:36:05;6.25;;;3.17;;
14945;SDS011;7567;50.916;6.900;2022-09-12T20:38:33;3.22;;;2.92;;
14945;SDS011;7567;50.916;6.900;2022-09-12T20:41:03;3.55;;;3.22;;
14945;SDS011;7567;50.916;6.900;2022-09-12T20:43:30;5.80;;;3.03;;
14945;SDS011;7567;50.916;6.900;2022-09-12T20:45:56;7.25;;;3.83;;
14945;SDS011;7567;50.916;6.900;2022-09-12T20:48:22;4.38;;;3.80;;
14945;SDS011;7567;50.916;6.900;2022-09-12T20:50:48;3.97;;;3.55;;
14945;SDS011;7567;50.916;6.900;2022-09-12T20:53:14;5.43;;;4.15;;
14945;SDS011;7567;50.916;6.900;2022-09-12T20:55:50;5.75;;;4.30;;
14945;SDS011;7567;50.916;6.900;2022-09-12T20:58:17;3.92;;;3.63;;
14945;SDS011;7567;50.916;6.900;2022-09-12T21:00:44;4.45;;;3.50;;
14945;SDS011;7567;50.916;6.900;2022-09-12T21:03:10;4.25;;;3.80;;
14945;SDS011;7567;50.916;6.900;2022-09-12T21:05:37;4.97;;;3.10;;
14945;SDS011;7567;50.916;6.900;2022-09-12T21:08:03;3.75;;;3.45;;
14945;SDS011;7567;50.916;6.900;2022-09-12T21:10:30;4.10;;;3.70;;
14945;SDS011;7567;50.916;6.900;2022-09-12T21:12:56;3.95;;;3.58;;
14945;SDS011;7567;50.916;6.900;2022-09-12T21:15:22;4.65;;;4.25;;
14945;SDS011;7567;50.916;6.900;2022-09-12T21:17:48;3.83;;;3.42;;
14945;SDS011;7567;50.916;6.900;2022-09-12T21:20:14;4.20;;;3.80;;
14945;SDS011;7567;50.916;6.900;2022-09-12T21:22:40;3.55;;;3.13;;
14945;SDS011;7567;50.916;6.900;2022-09-12T21:25:06;3.65;;;3.35;;
14945;SDS011;7567;50.916;6.900;2022-09-12T21:27:32;4.57;;;3.22;;
14945;SDS011;7567;50.916;6.900;2022-09-12T21:29:58;3.45;;;3.15;;
14945;SDS011;7567;50.916;6.900;2022-09-12T21:32:27;3.55;;;3.25;;
14945;SDS011;7567;50.916;6.900;2022-09-12T21:34:59;5.78;;;3.55;;
14945;SDS011;7567;50.916;6.900;2022-09-12T21:37:25;3.97;;;3.10;;
14945;SDS011;7567;50.916;6.900;2022-09-12T21:39:51;3.58;;;3.28;;
14945;SDS011;7567;50.916;6.900;2022-09-12T21:42:18;3.83;;;3.20;;
14945;SDS011;7567;50.916;6.900;2022-09-12T21:44:44;5.43;;;3.53;;
14945;SDS011;7567;50.916;6.900;2022-09-12T21:47:10;4.63;;;3.17;;
14945;SDS011;7567;50.916;6.900;2022-09-12T21:49:35;6.72;;;3.22;;
14945;SDS011;7567;50.916;6.900;2022-09-12T21:52:01;3.83;;;3.17;;
14945;SDS011;7567;50.916;6.900;2022-09-12T21:54:28;5.88;;;3.50;;
14945;SDS011;7567;50.916;6.900;2022-09-12T21:56:54;4.45;;;3.28;;
14945;SDS011;7567;50.916;6.900;2022-09-12T21:59:19;4.25;;;3.70;;
14945;SDS011;7567;50.916;6.900;2022-09-12T22:01:45;4.20;;;3.47;;
14945;SDS011;7567;50.916;6.900;2022-09-12T22:04:11;4.75;;;3.47;;
14945;SDS011;7567;50.916;6.900;2022-09-12T22:06:37;7.28;;;3.30;;
14945;SDS011;7567;50.916;6.900;2022-09-12T22:09:04;4.43;;;3.63;;
14945;SDS011;7567;50.916;6.900;2022-09-12T22:11:31;3.97;;;3.20;;
14945;SDS011;7567;50.916;6.900;2022-09-12T22:13:57;4.15;;;3.50;;
14945;SDS011;7567;50.916;6.900;2022-09-12T22:16:23;6.80;;;3.80;;
14945;SDS011;7567;50.916;6.900;2022-09-12T22:18:48;4.05;;;3.55;;
14945;SDS011;7567;50.916;6.900;2022-09-12T22:21:16;4.03;;;3.40;;
14945;SDS011;7567;50.916;6.900;2022-09-12T22:23:46;4.47;;;3.65;;
14945;SDS011;7567;50.916;6.900;2022-09-12T22:26:31;5.82;;;3.80;;
14945;SDS011;7567;50.916;6.900;2022-09-12T22:29:06;5.57;;;3.42;;
14945;SDS011;7567;50.916;6.900;2022-09-12T22:31:34;4.63;;;3.65;;
14945;SDS011;7567;50.916;6.900;2022-09-12T22:34:04;4.53;;;3.42;;
14945;SDS011;7567;50.916;6.900;2022-09-12T22:36:30;4.32;;;3.63;;
14945;SDS011;7567;50.916;6.900;2022-09-12T22:38:56;5.20;;;3.55;;
14945;SDS011;7567;50.916;6.900;2022-09-12T22:41:23;3.63;;;3.40;;
14945;SDS011;7567;50.916;6.900;2022-09-12T22:43:49;5.00;;;3.97;;
14945;SDS011;7567;50.916;6.900;2022-09-12T22:46:15;5.18;;;3.67;;
14945;SDS011;7567;50.916;6.900;2022-09-12T22:48:41;4.65;;;3.70;;
14945;SDS011;7567;50.916;6.900;2022-09-12T22:51:07;11.48;;;4.22;;
14945;SDS011;7567;50.916;6.900;2022-09-12T22:53:33;4.32;;;3.92;;
14945;SDS011;7567;50.916;6.900;2022-09-12T22:56:00;3.67;;;3.35;;
14945;SDS011;7567;50.916;6.900;2022-09-12T22:58:29;4.20;;;3.60;;
14945;SDS011;7567;50.916;6.900;2022-09-12T23:00:55;4.03;;;3.58;;
14945;SDS011;7567;50.916;6.900;2022-09-12T23:03:21;4.07;;;3.67;;
14945;SDS011;7567;50.916;6.900;2022-09-12T23:05:47;8.57;;;4.18;;
14945;SDS011;7567;50.916;6.900;2022-09-12T23:08:13;4.38;;;3.95;;
14945;SDS011;7567;50.916;6.900;2022-09-12T23:10:40;6.25;;;3.85;;
14945;SDS011;7567;50.916;6.900;2022-09-12T23:13:06;4.20;;;3.80;;
14945;SDS011;7567;50.916;6.900;2022-09-12T23:15:32;4.18;;;3.78;;
14945;SDS011;7567;50.916;6.900;2022-09-12T23:17:58;4.32;;;3.55;;
14945;SDS011;7567;50.916;6.900;2022-09-12T23:20:24;5.45;;;3.42;;
14945;SDS011;7567;50.916;6.900;2022-09-12T23:22:50;4.32;;;3.88;;
14945;SDS011;7567;50.916;6.900;2022-09-12T23:25:16;3.85;;;3.42;;
14945;SDS011;7567;50.916;6.900;2022-09-12T23:27:44;3.97;;;3.53;;
14945;SDS011;7567;50.916;6.900;2022-09-12T23:30:11;5.68;;;3.40;;
14945;SDS011;7567;50.916;6.900;2022-09-12T23:32:37;3.83;;;3.53;;
14945;SDS011;7567;50.916;6.900;2022-09-12T23:35:03;3.92;;;3.63;;
14945;SDS011;7567;50.916;6.900;2022-09-12T23:37:29;8.27;;;4.05;;
14945;SDS011;7567;50.916;6.900;2022-09-12T23:39:55;4.93;;;3.65;;
14945;SDS011;7567;50.916;6.900;2022-09-12T23:42:20;5.30;;;3.72;;
14945;SDS011;7567;50.916;6.900;2022-09-12T23:44:46;4.07;;;3.78;;
14945;SDS011;7567;50.916;6.900;2022-09-12T23:47:12;3.85;;;3.25;;
14945;SDS011;7567;50.916;6.900;2022-09-12T23:49:38;4.32;;;3.45;;
14945;SDS011;7567;50.916;6.900;2022-09-12T23:52:04;3.60;;;3.28;;
14945;SDS011;7567;50.916;6.900;2022-09-12T23:54:30;6.10;;;3.53;;
14945;SDS011;7567;50.916;6.900;2022-09-12T23:56:56;5.55;;;4.13;;
14945;SDS011;7567;50.916;6.900;2022-09-12T23:59:22;4.13;;;3.72;;
